Time;durP1;ratioP1;P1;durP2;ratioP2;P2;SDS_P1;SDS_P2;PMS_P1;PMS_P2;Temp;Humidity;BMP_temperature;BMP_pressure;BME280_temperature;BME280_humidity;BME280_pressure;Samples;Min_cycle;Max_cycle;Signal;HPM_P1;HPM_P2
2023/04/21 00:00:59;;;;;;;0.00;0.00;;;;;;;13.10;44.70;101575.25;7359177;19;20247;-61
2023/04/21 00:03:26;;;;;;;0.00;0.00;;;;;;;13.09;44.22;101577.03;7354158;19;20698;-61
2023/04/21 00:05:52;;;;;;;0.00;0.00;;;;;;;13.06;44.30;101573.59;7352673;19;20014;-61
2023/04/21 00:08:18;;;;;;;0.00;0.00;;;;;;;13.03;44.16;101571.91;7349552;19;20086;-61
2023/04/21 00:10:44;;;;;;;0.00;0.00;;;;;;;13.00;44.14;101585.06;7357303;19;20014;-62
2023/04/21 00:13:09;;;;;;;0.00;0.00;;;;;;;12.91;43.84;101570.34;7354388;19;20017;-61
2023/04/21 00:15:35;;;;;;;0.00;0.00;;;;;;;12.94;43.82;101585.19;7356881;19;21197;-61
2023/04/21 00:18:02;;;;;;;0.10;0.10;;;;;;;12.90;43.85;101584.34;7356073;19;20014;-61
2023/04/21 00:20:28;;;;;;;0.00;0.00;;;;;;;12.89;43.78;101576.53;7355820;19;20018;-61
2023/04/21 00:22:55;;;;;;;0.00;0.00;;;;;;;12.87;44.03;101583.53;7355787;19;20006;-61
2023/04/21 00:25:20;;;;;;;0.00;0.00;;;;;;;12.84;44.18;101568.75;7353991;19;20010;-61
2023/04/21 00:27:46;;;;;;;0.00;0.00;;;;;;;12.82;43.82;101564.41;7353147;19;20279;-61
2023/04/21 00:30:11;;;;;;;0.00;0.00;;;;;;;12.73;43.83;101555.84;7352276;19;20018;-61
2023/04/21 00:32:37;;;;;;;0.00;0.00;;;;;;;12.78;44.05;101563.63;7353493;19;20016;-62
2023/04/21 00:35:03;;;;;;;0.00;0.00;;;;;;;12.63;44.18;101548.16;7356603;19;20018;-61
2023/04/21 00:37:28;;;;;;;0.00;0.00;;;;;;;12.69;44.71;101559.41;7351495;19;20011;-61
2023/04/21 00:39:53;;;;;;;0.00;0.00;;;;;;;12.71;44.48;101561.97;7351776;19;20007;-61
2023/04/21 00:42:19;;;;;;;0.00;0.00;;;;;;;12.67;45.26;101562.91;7354890;19;20007;-61
2023/04/21 00:44:45;;;;;;;0.00;0.00;;;;;;;12.65;45.44;101557.72;7355954;19;20042;-62
2023/04/21 00:47:10;;;;;;;0.00;0.00;;;;;;;12.64;45.62;101552.50;7352672;19;22486;-61
2023/04/21 00:49:36;;;;;;;0.00;0.00;;;;;;;12.40;45.57;101514.50;7351628;19;20014;-62
2023/04/21 00:52:04;;;;;;;0.00;0.00;;;;;;;12.60;45.38;101558.69;7356129;19;20119;-61
2023/04/21 00:54:29;;;;;;;0.00;0.00;;;;;;;12.57;45.80;101554.38;7354941;19;20031;-61
2023/04/21 00:56:58;;;;;;;0.00;0.00;;;;;;;12.55;46.05;101557.91;7351586;19;20045;-61
2023/04/21 00:59:23;;;;;;;0.08;0.08;;;;;;;12.53;46.02;101562.31;7350676;19;20018;-61
2023/04/21 01:01:51;;;;;;;0.00;0.00;;;;;;;12.46;45.85;101551.06;7355171;19;22314;-61
2023/04/21 01:04:17;;;;;;;0.00;0.00;;;;;;;12.49;46.40;101558.03;7353271;19;20050;-61
2023/04/21 01:06:42;;;;;;;0.00;0.00;;;;;;;12.46;46.81;101551.06;7355485;19;20010;-61
2023/04/21 01:09:08;;;;;;;0.00;0.00;;;;;;;12.44;47.05;101552.84;7351047;19;20031;-61
2023/04/21 01:11:33;;;;;;;0.00;0.00;;;;;;;12.41;47.16;101542.41;7353255;19;20891;-61
2023/04/21 01:13:59;;;;;;;0.00;0.00;;;;;;;12.29;47.13;101532.16;7352080;19;20014;-62
2023/04/21 01:16:25;;;;;;;0.00;0.00;;;;;;;12.36;47.06;101542.50;7353444;19;20817;-61
2023/04/21 01:18:52;;;;;;;0.00;0.00;;;;;;;12.33;47.46;101539.94;7354423;19;20045;-62
2023/04/21 01:21:18;;;;;;;0.00;0.00;;;;;;;12.31;47.80;101527.75;7349913;19;20081;-61
2023/04/21 01:23:44;;;;;;;0.00;0.00;;;;;;;12.29;48.35;101521.69;7354950;19;20097;-61
2023/04/21 01:26:10;;;;;;;0.00;0.00;;;;;;;12.12;48.56;101494.03;7352237;19;20104;-61
2023/04/21 01:28:35;;;;;;;0.00;0.00;;;;;;;12.23;48.58;101509.56;7352370;19;20014;-61
2023/04/21 01:31:01;;;;;;;0.00;0.00;;;;;;;12.23;48.56;101511.31;7350117;19;20031;-61
2023/04/21 01:33:27;;;;;;;0.00;0.00;;;;;;;12.20;48.38;101499.13;7352468;19;20636;-61
2023/04/21 01:35:54;;;;;;;0.05;0.05;;;;;;;12.17;48.42;101497.44;7351219;19;20595;-61
2023/04/21 01:38:20;;;;;;;0.00;0.00;;;;;;;12.17;48.72;101486.97;7355457;19;20016;-61
2023/04/21 01:40:48;;;;;;;0.00;0.00;;;;;;;12.16;49.00;101494.81;7348502;19;20010;-62
2023/04/21 01:43:16;;;;;;;0.00;0.00;;;;;;;12.13;48.75;101490.50;7355021;19;20468;-61
2023/04/21 01:45:41;;;;;;;0.00;0.00;;;;;;;12.08;49.44;101466.16;7353905;19;20040;-61
2023/04/21 01:48:06;;;;;;;0.00;0.00;;;;;;;12.09;48.77;101467.88;7352554;19;20896;-61
2023/04/21 01:50:32;;;;;;;0.10;0.10;;;;;;;12.04;48.52;101464.47;7354461;19;20010;-61
2023/04/21 01:52:57;;;;;;;0.00;0.00;;;;;;;12.02;48.33;101468.88;7345705;19;20020;-61
2023/04/21 01:55:23;;;;;;;0.00;0.00;;;;;;;12.00;48.36;101473.25;7353025;19;20003;-61
2023/04/21 01:57:48;;;;;;;0.00;0.00;;;;;;;11.99;48.42;101471.53;7341764;19;20025;-61
2023/04/21 02:00:14;;;;;;;0.00;0.00;;;;;;;11.96;48.61;101489.91;7353116;19;20448;-61
2023/04/21 02:02:40;;;;;;;0.10;0.10;;;;;;;11.95;48.25;101486.41;7353580;19;20681;-61
2023/04/21 02:05:05;;;;;;;0.00;0.00;;;;;;;11.93;48.22;101487.34;7347342;19;20022;-61
2023/04/21 02:07:31;;;;;;;0.00;0.00;;;;;;;11.91;48.88;101489.09;7355515;19;20434;-61
2023/04/21 02:09:56;;;;;;;0.00;0.00;;;;;;;11.89;49.13;101485.66;7353044;19;20010;-61
2023/04/21 02:12:22;;;;;;;0.00;0.00;;;;;;;11.87;49.06;101482.22;7347813;19;20014;-61
2023/04/21 02:14:48;;;;;;;0.00;0.00;;;;;;;11.78;49.32;101470.09;7353942;19;20018;-61
2023/04/21 02:17:14;;;;;;;0.00;0.00;;;;;;;11.83;50.07;101477.91;7354614;19;20600;-61
2023/04/21 02:19:39;;;;;;;0.00;0.00;;;;;;;11.80;49.65;101476.16;7353787;19;20018;-61
2023/04/21 02:22:07;;;;;;;0.00;0.00;;;;;;;11.40;49.93;101413.09;7353094;19;20007;-61
2023/04/21 02:24:33;;;;;;;0.00;0.00;;;;;;;11.73;50.20;101468.44;7351861;19;20017;-61
2023/04/21 02:26:58;;;;;;;0.00;0.00;;;;;;;11.74;50.16;101472.78;7353746;19;20457;-61
2023/04/21 02:29:23;;;;;;;0.00;0.00;;;;;;;11.73;50.49;101460.59;7352573;19;20021;-61
2023/04/21 02:31:49;;;;;;;0.00;0.00;;;;;;;11.70;50.21;101458.88;7347909;19;20014;-61
2023/04/21 02:34:14;;;;;;;0.00;0.00;;;;;;;11.68;49.72;101458.91;7355364;19;20026;-61
2023/04/21 02:36:40;;;;;;;0.00;0.00;;;;;;;11.66;50.43;101457.22;7347902;19;20018;-61
2023/04/21 02:39:05;;;;;;;0.00;0.00;;;;;;;11.32;50.17;101388.84;7353860;19;20019;-61
2023/04/21 02:41:30;;;;;;;0.00;0.00;;;;;;;11.63;50.22;101450.25;7351953;19;20018;-61
2023/04/21 02:43:56;;;;;;;0.00;0.00;;;;;;;11.61;50.90;101457.28;7349340;19;20045;-61
2023/04/21 02:46:21;;;;;;;0.00;0.00;;;;;;;11.60;50.71;101470.34;7351705;19;20548;-61
2023/04/21 02:48:46;;;;;;;0.00;0.00;;;;;;;11.59;50.74;101451.19;7354286;19;20078;-61
2023/04/21 02:51:14;;;;;;;0.00;0.00;;;;;;;11.58;50.55;101454.69;7348762;19;20022;-62
2023/04/21 02:53:40;;;;;;;0.00;0.00;;;;;;;11.55;50.96;101462.56;7351311;19;20007;-61
2023/04/21 02:56:07;;;;;;;0.00;0.00;;;;;;;11.54;51.09;101468.69;7351721;19;20040;-61
2023/04/21 02:58:34;;;;;;;0.00;0.00;;;;;;;11.42;51.15;101447.97;7353290;19;20010;-61
2023/04/21 03:01:00;;;;;;;0.00;0.00;;;;;;;11.45;51.48;101447.91;7348259;19;20021;-61
2023/04/21 03:03:25;;;;;;;0.00;0.00;;;;;;;11.49;51.07;101460.06;7328115;19;20597;-62
2023/04/21 03:05:59;;;;;;;0.00;0.00;;;;;;;11.49;50.99;101465.28;7352538;19;20577;-61
2023/04/21 03:08:25;;;;;;;0.00;0.00;;;;;;;11.47;50.88;101460.97;7354225;19;20656;-61
2023/04/21 03:10:50;;;;;;;0.00;0.00;;;;;;;11.44;50.93;101454.88;7353929;19;22191;-61
2023/04/21 03:13:16;;;;;;;0.00;0.00;;;;;;;11.42;51.22;101468.88;7353175;19;20021;-61
2023/04/21 03:15:41;;;;;;;0.00;0.00;;;;;;;11.42;51.44;101466.28;7358880;19;20522;-61
2023/04/21 03:18:07;;;;;;;0.00;0.00;;;;;;;11.39;51.04;101472.41;7355224;19;20026;-61
2023/04/21 03:20:32;;;;;;;0.00;0.00;;;;;;;11.37;51.35;101462.84;7347442;19;20019;-61
2023/04/21 03:22:58;;;;;;;0.00;0.00;;;;;;;11.37;51.40;101462.84;7351796;19;20063;-62
2023/04/21 03:25:23;;;;;;;0.00;0.00;;;;;;;11.35;50.96;101452.44;7358465;19;20009;-61
2023/04/21 03:27:48;;;;;;;0.00;0.00;;;;;;;11.34;51.10;101455.91;7356760;19;20010;-61
2023/04/21 03:30:14;;;;;;;0.00;0.00;;;;;;;11.33;51.27;101448.09;7362571;19;20806;-61
2023/04/21 03:32:39;;;;;;;0.00;0.00;;;;;;;11.32;51.11;101446.38;7357186;19;20006;-61
2023/04/21 03:35:05;;;;;;;0.00;0.00;;;;;;;11.31;50.91;101442.03;7359832;19;20066;-61
2023/04/21 03:37:30;;;;;;;0.00;0.00;;;;;;;11.29;51.15;101425.47;7359183;19;20014;-61
2023/04/21 03:39:56;;;;;;;0.00;0.00;;;;;;;11.26;51.50;101422.94;7362658;19;20742;-61
2023/04/21 03:42:21;;;;;;;0.00;0.00;;;;;;;11.27;51.32;101424.66;7358940;19;20462;-61
2023/04/21 03:44:47;;;;;;;0.00;0.00;;;;;;;11.22;51.67;101423.84;7362796;19;20096;-60
2023/04/21 03:47:12;;;;;;;0.00;0.00;;;;;;;11.24;51.53;101424.69;7353509;19;20014;-61
2023/04/21 03:49:37;;;;;;;0.00;0.00;;;;;;;11.24;51.84;101427.28;7358425;19;20094;-61
2023/04/21 03:52:03;;;;;;;0.00;0.00;;;;;;;11.21;52.19;101419.50;7356934;19;20007;-61
2023/04/21 03:54:28;;;;;;;0.00;0.00;;;;;;;11.22;52.06;101419.47;7360498;19;20018;-61
2023/04/21 03:56:54;;;;;;;0.00;0.00;;;;;;;11.21;52.32;101432.59;7354656;19;20018;-61
2023/04/21 03:59:20;;;;;;;0.00;0.00;;;;;;;11.10;52.68;101407.44;7360120;19;20010;-61
2023/04/21 04:01:45;;;;;;;0.00;0.00;;;;;;;11.24;52.85;101427.28;7359262;19;20026;-60
2023/04/21 04:04:10;;;;;;;0.00;0.00;;;;;;;11.24;52.52;101419.44;7359978;19;20117;-61
2023/04/21 04:06:36;;;;;;;0.00;0.00;;;;;;;10.82;52.81;101340.75;7360369;19;20471;-61
2023/04/21 04:09:03;;;;;;;0.00;0.00;;;;;;;11.28;52.98;101405.44;7355724;19;20006;-61
2023/04/21 04:11:31;;;;;;;0.00;0.00;;;;;;;11.31;53.18;101401.06;7359752;19;20346;-61
2023/04/21 04:13:57;;;;;;;0.00;0.00;;;;;;;11.34;52.98;101381.81;7358100;19;20094;-62
2023/04/21 04:16:23;;;;;;;0.00;0.00;;;;;;;11.36;53.14;101391.38;7360850;19;20098;-61
2023/04/21 04:18:51;;;;;;;0.00;0.00;;;;;;;11.40;52.51;101386.94;7355117;19;20959;-61
2023/04/21 04:21:17;;;;;;;0.00;0.00;;;;;;;11.43;53.00;101389.53;7356425;19;20519;-61
2023/04/21 04:23:43;;;;;;;0.00;0.00;;;;;;;11.44;53.00;101389.50;7356424;19;20082;-61
2023/04/21 04:26:10;;;;;;;0.00;0.00;;;;;;;11.48;53.05;101385.09;7354677;19;20043;-61
2023/04/21 04:28:36;;;;;;;0.00;0.00;;;;;;;11.50;52.98;101378.09;7359865;19;20027;-61
2023/04/21 04:31:01;;;;;;;0.00;0.00;;;;;;;11.43;53.18;101366.00;7359240;19;20010;-61
2023/04/21 04:33:27;;;;;;;0.00;0.00;;;;;;;11.54;53.08;101374.53;7359699;19;20077;-61
2023/04/21 04:35:53;;;;;;;0.00;0.00;;;;;;;11.56;52.98;101372.78;7357866;19;20006;-61
2023/04/21 04:38:19;;;;;;;0.00;0.00;;;;;;;11.35;53.34;101332.13;7355016;19;22222;-61
2023/04/21 04:40:44;;;;;;;0.00;0.00;;;;;;;11.58;53.38;101365.75;7358166;19;20014;-61
2023/04/21 04:43:10;;;;;;;0.00;0.00;;;;;;;11.62;53.38;101377.91;7359797;19;20047;-61
2023/04/21 04:45:36;;;;;;;0.00;0.00;;;;;;;11.62;54.02;101367.44;7359150;19;20007;-61
2023/04/21 04:48:05;;;;;;;0.00;0.00;;;;;;;11.65;53.28;101376.97;7357147;19;20007;-61
2023/04/21 04:50:30;;;;;;;0.00;0.00;;;;;;;11.65;53.27;101383.06;7360841;19;20011;-61
2023/04/21 04:52:56;;;;;;;0.00;0.00;;;;;;;11.67;53.85;101377.84;7359184;19;20007;-61
2023/04/21 04:55:22;;;;;;;0.10;0.10;;;;;;;11.58;54.09;101355.28;7358306;19;20021;-61
2023/04/21 04:57:47;;;;;;;0.00;0.00;;;;;;;11.68;54.00;101379.56;7355597;19;20410;-61
2023/04/21 05:00:13;;;;;;;0.00;0.00;;;;;;;11.69;53.98;101378.66;7355451;19;20669;-61
2023/04/21 05:02:39;;;;;;;0.00;0.00;;;;;;;11.64;53.96;101364.78;7361655;19;20022;-61
2023/04/21 05:05:06;;;;;;;0.10;0.10;;;;;;;11.70;54.12;101370.78;7357427;19;20836;-61
2023/04/21 05:07:32;;;;;;;0.00;0.00;;;;;;;11.70;54.12;101370.78;7357705;19;20031;-61
2023/04/21 05:09:57;;;;;;;0.00;0.00;;;;;;;11.69;54.04;101353.34;7353884;19;20041;-61
2023/04/21 05:12:23;;;;;;;0.10;0.10;;;;;;;11.69;53.87;101352.50;7353137;19;20090;-61
2023/04/21 05:14:48;;;;;;;0.00;0.00;;;;;;;11.66;53.70;101342.97;7357018;19;20515;-61
2023/04/21 05:17:14;;;;;;;0.00;0.00;;;;;;;11.65;54.15;101351.69;7357857;19;21007;-62
2023/04/21 05:19:39;;;;;;;0.10;0.10;;;;;;;11.63;54.08;101343.00;7355663;19;20562;-62
2023/04/21 05:22:05;;;;;;;0.00;0.00;;;;;;;11.61;54.35;101336.09;7359777;19;20027;-62
2023/04/21 05:24:32;;;;;;;0.00;0.00;;;;;;;11.55;54.51;101331.78;7356806;19;20010;-61
2023/04/21 05:26:57;;;;;;;0.00;0.00;;;;;;;11.56;54.34;101336.16;7355995;19;20062;-61
2023/04/21 05:29:22;;;;;;;0.00;0.00;;;;;;;11.53;54.29;101335.34;7357591;19;20730;-60
2023/04/21 05:31:48;;;;;;;0.00;0.00;;;;;;;11.45;54.80;101322.38;7356643;19;20038;-61
2023/04/21 05:34:13;;;;;;;0.00;0.00;;;;;;;11.47;54.59;101325.84;7355246;19;20026;-61
2023/04/21 05:36:42;;;;;;;0.00;0.00;;;;;;;11.45;54.41;101330.22;7359244;19;25601;-61
2023/04/21 05:39:08;;;;;;;0.00;0.00;;;;;;;11.41;54.95;101341.63;7355293;19;20463;-61
2023/04/21 05:41:33;;;;;;;0.00;0.00;;;;;;;11.38;55.16;101337.31;7357324;19;20040;-62
2023/04/21 05:43:58;;;;;;;0.00;0.00;;;;;;;11.36;55.11;101326.03;7355658;19;20102;-62
2023/04/21 05:46:24;;;;;;;0.00;0.00;;;;;;;11.34;55.72;101334.75;7356381;19;21553;-61
2023/04/21 05:48:49;;;;;;;0.00;0.00;;;;;;;10.96;55.58;101270.88;7359652;19;20032;-61
2023/04/21 05:51:15;;;;;;;0.00;0.00;;;;;;;11.29;55.68;101326.97;7356493;19;20010;-61
2023/04/21 05:53:42;;;;;;;0.00;0.00;;;;;;;11.31;55.66;101329.59;7355295;19;20010;-62
2023/04/21 05:56:08;;;;;;;0.00;0.00;;;;;;;11.25;55.87;101308.75;7354893;19;20043;-61
2023/04/21 05:58:34;;;;;;;0.00;0.00;;;;;;;11.28;56.16;101303.50;7344334;19;20014;-61
2023/04/21 06:01:00;;;;;;;0.00;0.00;;;;;;;11.28;56.88;101309.56;7353434;19;20010;-61
2023/04/21 06:03:25;;;;;;;0.00;0.00;;;;;;;11.29;56.75;101320.91;7352312;19;20010;-61
2023/04/21 06:05:54;;;;;;;0.00;0.00;;;;;;;11.28;56.44;101306.97;7355330;19;20050;-61
2023/04/21 06:08:21;;;;;;;0.00;0.00;;;;;;;10.75;57.19;101230.25;7351464;19;20032;-61
2023/04/21 06:10:46;;;;;;;0.00;0.00;;;;;;;11.13;56.97;101294.13;7353651;19;20011;-61
2023/04/21 06:13:11;;;;;;;0.00;0.00;;;;;;;11.26;57.37;101315.72;7353458;19;20362;-61
2023/04/21 06:15:37;;;;;;;0.00;0.00;;;;;;;11.27;57.15;101312.22;7352100;19;20035;-61
2023/04/21 06:18:02;;;;;;;0.00;0.00;;;;;;;11.27;57.53;101309.59;7350924;19;20086;-61
2023/04/21 06:20:28;;;;;;;0.00;0.00;;;;;;;11.29;57.58;101305.22;7355376;19;20010;-62
2023/04/21 06:22:53;;;;;;;0.00;0.00;;;;;;;11.31;57.67;101308.69;7350317;19;20018;-61
2023/04/21 06:25:19;;;;;;;0.00;0.00;;;;;;;11.33;57.66;101304.28;7351374;19;20562;-61
2023/04/21 06:27:44;;;;;;;0.10;0.10;;;;;;;11.36;57.62;101305.09;7350679;19;20714;-62
2023/04/21 06:30:10;;;;;;;0.00;0.00;;;;;;;11.40;57.57;101304.16;7354295;19;20011;-61
2023/04/21 06:32:36;;;;;;;0.00;0.00;;;;;;;11.41;57.67;101297.19;7352919;19;20488;-62
2023/04/21 06:35:01;;;;;;;0.00;0.00;;;;;;;11.48;57.97;101298.78;7351342;19;20021;-61
2023/04/21 06:37:27;;;;;;;0.00;0.00;;;;;;;11.51;57.96;101296.13;7352141;19;20006;-61
2023/04/21 06:39:52;;;;;;;0.00;0.00;;;;;;;11.56;58.13;101283.84;7348753;19;20007;-61
2023/04/21 06:42:18;;;;;;;0.00;0.00;;;;;;;11.60;58.27;101275.03;7353581;19;20014;-61
2023/04/21 06:44:43;;;;;;;0.00;0.00;;;;;;;11.65;57.99;101267.97;7347978;19;20415;-61
2023/04/21 06:47:09;;;;;;;0.00;0.00;;;;;;;11.69;57.80;101253.94;7351096;19;20007;-61
2023/04/21 06:49:36;;;;;;;0.00;0.00;;;;;;;11.74;57.75;101260.84;7354751;19;20011;-61
2023/04/21 06:52:01;;;;;;;0.00;0.00;;;;;;;11.77;57.42;101271.28;7362199;19;20019;-62
2023/04/21 06:54:26;;;;;;;0.03;0.03;;;;;;;11.79;57.63;101272.09;7356440;19;20843;-61
2023/04/21 06:56:52;;;;;;;0.00;0.00;;;;;;;11.78;57.43;101263.38;7337608;19;20014;-61
2023/04/21 06:59:17;;;;;;;0.00;0.00;;;;;;;11.81;57.50;101257.22;7355341;19;20775;-61
2023/04/21 07:01:43;;;;;;;0.00;0.00;;;;;;;11.82;57.51;101261.59;7354391;19;20010;-61
2023/04/21 07:04:08;;;;;;;0.00;0.00;;;;;;;11.86;58.05;101265.88;7362069;19;20470;-61
2023/04/21 07:06:34;;;;;;;0.00;0.00;;;;;;;11.87;58.11;101254.53;7357229;19;20010;-61
2023/04/21 07:08:59;;;;;;;0.00;0.00;;;;;;;11.90;57.98;101250.09;7357949;19;20037;-62
2023/04/21 07:11:27;;;;;;;0.00;0.00;;;;;;;11.91;57.81;101243.97;7347761;19;20014;-62
2023/04/21 07:13:52;;;;;;;0.00;0.00;;;;;;;11.97;57.73;101258.69;7347079;19;20029;-62
2023/04/21 07:16:18;;;;;;;0.00;0.00;;;;;;;12.00;57.69;101252.53;7356219;19;20019;-62
2023/04/21 07:18:43;;;;;;;0.00;0.00;;;;;;;12.05;57.60;101254.16;7362181;19;20032;-62
2023/04/21 07:21:09;;;;;;;0.00;0.00;;;;;;;12.08;57.96;101248.00;7356190;19;20843;-61
2023/04/21 07:23:34;;;;;;;0.00;0.00;;;;;;;12.14;58.26;101256.59;7357401;19;20635;-62
2023/04/21 07:26:00;;;;;;;0.00;0.00;;;;;;;12.23;58.65;101262.56;7361519;19;20629;-62
2023/04/21 07:28:25;;;;;;;0.00;0.00;;;;;;;12.29;57.83;101254.56;7352225;19;20297;-62
2023/04/21 07:30:51;;;;;;;0.00;0.00;;;;;;;12.33;58.07;101249.22;7360392;19;20074;-61
2023/04/21 07:33:16;;;;;;;0.00;0.00;;;;;;;12.39;57.90;101241.22;7357866;19;20034;-61
2023/04/21 07:35:42;;;;;;;0.00;0.00;;;;;;;12.45;58.24;101243.72;7362412;19;20269;-62
2023/04/21 07:38:07;;;;;;;0.00;0.00;;;;;;;12.49;57.71;101241.91;7356061;19;20057;-62
2023/04/21 07:40:33;;;;;;;0.00;0.00;;;;;;;12.30;58.07;101194.28;7340028;19;20014;-63
2023/04/21 07:42:58;;;;;;;0.00;0.00;;;;;;;12.56;58.45;101238.25;7356203;19;20010;-62
2023/04/21 07:45:25;;;;;;;0.00;0.00;;;;;;;12.24;58.29;101168.25;7358336;19;20018;-61
2023/04/21 07:47:50;;;;;;;0.00;0.00;;;;;;;12.62;58.26;101227.66;7358409;19;20724;-61
2023/04/21 07:50:15;;;;;;;0.00;0.00;;;;;;;12.65;57.61;101230.19;7359563;19;20007;-63
2023/04/21 07:52:41;;;;;;;0.00;0.00;;;;;;;12.65;57.47;101227.56;7347256;19;20013;-63
2023/04/21 07:55:07;;;;;;;0.00;0.00;;;;;;;12.67;57.39;101222.28;7356271;19;20010;-63
2023/04/21 07:57:37;;;;;;;0.00;0.00;;;;;;;12.70;57.75;101214.34;7361582;19;20010;-63
2023/04/21 08:00:06;;;;;;;0.00;0.00;;;;;;;12.75;58.22;101202.00;7355057;19;20027;-60
2023/04/21 08:02:31;;;;;;;0.00;0.00;;;;;;;12.80;58.43;101178.31;7361123;19;20014;-61
2023/04/21 08:04:57;;;;;;;0.00;0.00;;;;;;;12.86;58.03;101167.66;7361010;19;20006;-63
2023/04/21 08:07:22;;;;;;;0.00;0.00;;;;;;;12.87;57.89;101156.28;7359183;19;20006;-63
2023/04/21 08:09:48;;;;;;;0.00;0.00;;;;;;;13.03;58.08;101175.09;7360832;19;20002;-60
2023/04/21 08:12:13;;;;;;;0.00;0.00;;;;;;;13.13;58.03;101195.84;7360956;19;20570;-61
2023/04/21 08:14:39;;;;;;;0.00;0.00;;;;;;;13.20;57.93;101231.47;7358130;19;20009;-63
2023/04/21 08:17:04;;;;;;;0.00;0.00;;;;;;;13.29;57.47;101235.69;7361479;19;20022;-64
2023/04/21 08:19:30;;;;;;;0.00;0.00;;;;;;;13.37;57.25;101231.06;7358070;19;20629;-63
2023/04/21 08:21:56;;;;;;;0.10;0.10;;;;;;;13.45;56.92;101230.91;7361134;19;20038;-63
2023/04/21 08:24:21;;;;;;;0.00;0.00;;;;;;;13.53;57.28;101228.91;7355836;19;20584;-63
2023/04/21 08:26:47;;;;;;;0.00;0.00;;;;;;;13.59;57.01;101228.78;7359897;19;20011;-63
2023/04/21 08:29:12;;;;;;;0.03;0.03;;;;;;;13.65;56.57;101204.97;7357180;19;20019;-63
2023/04/21 08:31:38;;;;;;;0.00;0.00;;;;;;;13.56;56.91;101175.50;7359825;19;20059;-63
2023/04/21 08:34:04;;;;;;;0.00;0.00;;;;;;;13.81;56.76;101196.69;7360161;19;20010;-63
2023/04/21 08:36:30;;;;;;;0.00;0.00;;;;;;;13.86;56.48;101179.03;7359283;19;20029;-63
2023/04/21 08:38:56;;;;;;;0.08;0.08;;;;;;;13.95;56.50;101179.63;7361121;19;20090;-62
2023/04/21 08:41:23;;;;;;;0.00;0.00;;;;;;;13.98;56.61;101176.03;7357723;19;20014;-62
2023/04/21 08:43:48;;;;;;;0.00;0.00;;;;;;;14.09;56.65;101181.88;7360117;19;20012;-62
2023/04/21 08:46:15;;;;;;;0.00;0.00;;;;;;;14.18;56.44;101176.31;7355452;19;20422;-62
2023/04/21 08:48:40;;;;;;;0.00;0.00;;;;;;;14.26;56.29;101166.44;7361816;19;20022;-62
2023/04/21 08:51:10;;;;;;;0.05;0.05;;;;;;;14.38;55.76;101161.72;7358547;19;20039;-62
2023/04/21 08:53:36;;;;;;;0.00;0.00;;;;;;;14.49;55.59;101170.16;7357450;19;20445;-62
2023/04/21 08:56:03;;;;;;;0.00;0.00;;;;;;;14.60;55.18;101173.31;7359021;19;20009;-62
2023/04/21 08:58:28;;;;;;;0.00;0.00;;;;;;;14.69;54.59;101167.75;7361855;19;20014;-63
2023/04/21 09:00:54;;;;;;;0.00;0.00;;;;;;;14.75;54.51;101162.31;7359958;19;20010;-62
2023/04/21 09:03:24;;;;;;;0.10;0.10;;;;;;;14.83;53.96;101155.94;7353989;19;20019;-62
2023/04/21 09:06:00;;;;;;;0.00;0.00;;;;;;;14.89;54.00;101158.34;7359741;19;20416;-62
2023/04/21 09:08:28;;;;;;;0.00;0.00;;;;;;;14.88;53.75;101157.50;7354318;19;20867;-62
2023/04/21 09:10:54;;;;;;;0.00;0.00;;;;;;;14.92;53.73;101145.97;7359429;19;20019;-62
2023/04/21 09:13:22;;;;;;;0.00;0.00;;;;;;;14.96;53.76;101141.47;7355631;19;20024;-62
2023/04/21 09:15:50;;;;;;;0.00;0.00;;;;;;;15.02;53.60;101143.91;7360245;19;20018;-62
2023/04/21 09:18:21;;;;;;;0.08;0.08;;;;;;;15.07;52.94;101141.97;7358661;19;20017;-61
2023/04/21 09:20:48;;;;;;;0.00;0.00;;;;;;;15.07;53.46;101126.19;7357316;19;20023;-62
2023/04/21 09:23:14;;;;;;;0.10;0.10;;;;;;;15.09;53.14;101126.13;7354860;19;20010;-62
2023/04/21 09:25:44;;;;;;;0.00;0.00;;;;;;;15.14;53.08;101127.69;7359599;19;20021;-62
2023/04/21 09:28:13;;;;;;;0.00;0.00;;;;;;;15.15;53.28;101118.88;7356785;19;20518;-61
2023/04/21 09:30:41;;;;;;;0.00;0.00;;;;;;;15.14;53.34;101111.03;7360078;19;20025;-62
2023/04/21 09:33:07;;;;;;;0.00;0.00;;;;;;;15.19;53.28;101104.69;7357144;19;20022;-62
2023/04/21 09:35:34;;;;;;;0.00;0.00;;;;;;;15.21;52.73;101097.63;7356909;19;20620;-62
2023/04/21 09:38:01;;;;;;;0.00;0.00;;;;;;;15.25;52.86;101098.34;7358483;19;20058;-62
2023/04/21 09:40:29;;;;;;;0.00;0.00;;;;;;;15.30;52.81;101099.06;7358430;19;20600;-62
2023/04/21 09:42:54;;;;;;;0.00;0.00;;;;;;;15.36;52.85;101084.81;7353921;19;20452;-62
2023/04/21 09:45:31;;;;;;;0.00;0.00;;;;;;;15.45;52.50;101084.47;7357864;19;20019;-62
2023/04/21 09:48:02;;;;;;;0.00;0.00;;;;;;;15.52;52.39;101080.72;7356023;19;20021;-62
2023/04/21 09:50:28;;;;;;;0.10;0.10;;;;;;;15.46;52.38;101065.13;7356689;19;20035;-62
2023/04/21 09:52:56;;;;;;;0.03;0.03;;;;;;;15.67;52.15;101085.44;7356360;19;20090;-62
2023/04/21 09:55:25;;;;;;;;;;;;;;;15.78;51.24;101092.94;7356906;19;20010;-62
2023/04/21 09:57:51;;;;;;;0.00;0.00;;;;;;;15.68;51.83;101081.91;7354546;19;19950;-62
2023/04/21 10:00:18;;;;;;;0.03;0.03;;;;;;;15.83;51.86;101089.22;7357113;19;20517;-62
2023/04/21 10:02:49;;;;;;;0.00;0.00;;;;;;;15.93;51.80;101094.13;7357470;19;20022;-62
2023/04/21 10:05:14;;;;;;;0.00;0.00;;;;;;;15.93;51.71;101088.88;7357029;19;20014;-62
2023/04/21 10:07:40;;;;;;;0.00;0.00;;;;;;;15.97;51.71;101077.28;7358415;19;20010;-62
2023/04/21 10:10:07;;;;;;;0.00;0.00;;;;;;;16.03;51.90;101066.50;7354925;19;20006;-62
2023/04/21 10:12:33;;;;;;;0.00;0.00;;;;;;;16.07;51.80;101068.97;7352713;19;20043;-62
2023/04/21 10:15:04;;;;;;;0.00;0.00;;;;;;;16.14;51.43;101072.22;7357592;19;20018;-62
2023/04/21 10:17:34;;;;;;;0.00;0.00;;;;;;;16.22;50.92;101072.78;7357598;19;20007;-62
2023/04/21 10:20:00;;;;;;;0.00;0.00;;;;;;;16.22;51.35;101064.88;7356269;19;20011;-62
2023/04/21 10:22:31;;;;;;;0.00;0.00;;;;;;;16.29;51.14;101063.69;7353932;19;20589;-62
2023/04/21 10:24:58;;;;;;;0.10;0.10;;;;;;;16.29;51.09;101057.56;7356956;19;20010;-62
2023/04/21 10:27:39;;;;;;;0.03;0.03;;;;;;;16.36;50.70;101053.75;7356154;19;20736;-62
2023/04/21 10:30:18;;;;;;;0.00;0.00;;;;;;;16.38;50.47;101051.06;7358740;19;20077;-62
2023/04/21 10:32:45;;;;;;;0.00;0.00;;;;;;;16.35;50.74;101052.88;7353390;19;20632;-62
2023/04/21 10:35:13;;;;;;;0.00;0.00;;;;;;;16.39;50.86;101050.13;7358416;19;20019;-63
2023/04/21 10:37:41;;;;;;;0.00;0.00;;;;;;;16.41;50.12;101058.81;7356828;19;20396;-62
2023/04/21 10:40:29;;;;;;;0.00;0.00;;;;;;;16.45;49.95;101042.81;7357068;19;20017;-62
2023/04/21 10:42:54;;;;;;;0.08;0.08;;;;;;;16.41;50.55;101040.38;7356645;19;20057;-62
2023/04/21 10:45:23;;;;;;;0.10;0.10;;;;;;;16.46;50.27;101041.91;7354103;19;21333;-62
2023/04/21 10:47:51;;;;;;;0.05;0.05;;;;;;;16.48;50.28;101045.34;7356198;19;20015;-62
2023/04/21 10:50:16;;;;;;;0.03;0.03;;;;;;;16.48;50.17;101015.50;7355662;19;20129;-62
2023/04/21 10:52:56;;;;;;;0.05;0.05;;;;;;;16.67;49.86;101020.81;7357116;19;20030;-62
2023/04/21 10:55:25;;;;;;;0.10;0.10;;;;;;;16.74;49.96;101020.53;7355740;19;20018;-62
2023/04/21 10:57:52;;;;;;;0.00;0.00;;;;;;;16.76;49.96;101005.50;7355672;19;20007;-62
2023/04/21 11:00:23;;;;;;;0.00;0.00;;;;;;;16.91;49.78;101011.88;7354968;19;20015;-62
2023/04/21 11:02:53;;;;;;;0.10;0.10;;;;;;;17.06;50.72;101013.00;7354290;19;20375;-62
2023/04/21 11:05:19;;;;;;;0.00;0.00;;;;;;;17.24;50.55;101001.63;7355769;19;20020;-62
2023/04/21 11:07:45;;;;;;;0.00;0.00;;;;;;;17.58;50.41;101000.03;7353883;19;20019;-62
2023/04/21 11:10:10;;;;;;;0.00;0.00;;;;;;;17.95;50.22;100998.34;7355210;19;20536;-62
2023/04/21 11:12:38;;;;;;;0.08;0.08;;;;;;;18.34;49.38;100980.47;7355302;19;20014;-63
2023/04/21 11:15:09;;;;;;;0.00;0.00;;;;;;;18.85;49.18;100976.09;7354522;19;20867;-63
2023/04/21 11:17:38;;;;;;;0.00;0.00;;;;;;;19.24;47.59;100969.63;7354657;19;20014;-62
2023/04/21 11:20:05;;;;;;;0.10;0.10;;;;;;;19.67;47.24;100969.94;7355340;19;20007;-63